Time;durP1;ratioP1;P1;durP2;ratioP2;P2;SDS_P1;SDS_P2;PMS_P1;PMS_P2;Temp;Humidity;BMP_temperature;BMP_pressure;BME280_temperature;BME280_humidity;BME280_pressure;Samples;Min_cycle;Max_cycle;Signal;HPM_P1;HPM_P2
2021/08/13 00:02:32;;;;;;;8.20;7.47;;;21.80;96.80;;;;;;5115353;27;20465;-64
2021/08/13 00:07:43;;;;;;;8.90;8.20;;;21.80;96.90;;;;;;5112409;28;20456;-64
2021/08/13 00:10:10;;;;;;;9.57;8.77;;;21.80;96.90;;;;;;5115649;27;20530;-64
2021/08/13 00:12:37;;;;;;;8.10;7.50;;;21.70;96.90;;;;;;5104077;28;21088;-64
2021/08/13 00:15:07;;;;;;;8.60;8.00;;;21.70;96.90;;;;;;5113333;27;20468;-64
2021/08/13 00:17:34;;;;;;;8.67;7.90;;;21.70;96.90;;;;;;5110770;27;20516;-64
2021/08/13 00:20:00;;;;;;;8.47;7.77;;;21.70;97.00;;;;;;5108650;27;20517;-64
2021/08/13 00:22:27;;;;;;;7.90;7.30;;;21.70;97.00;;;;;;5115212;28;20457;-64
2021/08/13 00:24:53;;;;;;;7.87;7.27;;;21.70;97.00;;;;;;5106313;28;20868;-64
2021/08/13 00:27:20;;;;;;;8.50;7.87;;;21.70;97.10;;;;;;5110639;28;20527;-64
2021/08/13 00:29:47;;;;;;;7.60;6.93;;;21.70;97.20;;;;;;5105551;28;20472;-63
2021/08/13 00:32:15;;;;;;;7.50;6.90;;;21.70;97.20;;;;;;5111509;28;20460;-64
2021/08/13 00:34:42;;;;;;;9.17;8.37;;;21.70;97.20;;;;;;5100778;28;20487;-63
2021/08/13 00:37:08;;;;;;;8.47;7.70;;;21.70;97.20;;;;;;5108047;27;20449;-63
2021/08/13 00:39:35;;;;;;;12.33;11.23;;;21.70;97.20;;;;;;5106679;28;20497;-64
2021/08/13 00:42:02;;;;;;;10.50;9.60;;;21.70;96.90;;;;;;5107036;27;20452;-64
2021/08/13 00:44:30;;;;;;;8.80;8.10;;;21.70;96.80;;;;;;5102743;28;20655;-64
2021/08/13 00:46:56;;;;;;;9.43;8.63;;;21.70;97.00;;;;;;5107597;27;20465;-64
2021/08/13 00:49:25;;;;;;;8.27;7.57;;;21.70;97.00;;;;;;5114190;27;20851;-64
2021/08/13 00:51:51;;;;;;;8.80;8.20;;;21.70;97.10;;;;;;5100676;28;20529;-64
2021/08/13 00:54:19;;;;;;;8.07;7.47;;;21.70;97.20;;;;;;5108469;27;20521;-64
2021/08/13 00:56:46;;;;;;;8.20;7.50;;;21.70;97.30;;;;;;5114168;27;20488;-64
2021/08/13 00:59:12;;;;;;;7.27;6.77;;;21.70;97.40;;;;;;5102926;28;20474;-64
2021/08/13 01:01:39;;;;;;;7.83;7.23;;;21.70;97.40;;;;;;5104487;28;20530;-64
2021/08/13 01:04:05;;;;;;;8.77;8.07;;;21.60;97.40;;;;;;5112442;27;20514;-64
2021/08/13 01:06:33;;;;;;;8.27;7.47;;;21.70;97.20;;;;;;5103711;28;20460;-64
2021/08/13 01:09:00;;;;;;;8.97;8.27;;;21.60;97.30;;;;;;5107189;28;20533;-64
2021/08/13 01:11:37;;;;;;;9.60;8.73;;;21.60;97.40;;;;;;5113533;28;20463;-64
2021/08/13 01:14:11;;;;;;;8.33;7.70;;;21.60;97.30;;;;;;5105986;28;20464;-64
2021/08/13 01:16:43;;;;;;;9.53;8.83;;;21.60;97.40;;;;;;5103421;27;20519;-64
2021/08/13 01:19:16;;;;;;;7.80;7.20;;;21.60;97.30;;;;;;5108143;28;20519;-64
2021/08/13 01:21:46;;;;;;;8.37;7.77;;;21.60;97.50;;;;;;5113820;28;20529;-64
2021/08/13 01:24:16;;;;;;;8.20;7.60;;;21.60;97.60;;;;;;5107883;28;20453;-64
2021/08/13 01:26:48;;;;;;;7.97;7.37;;;21.60;97.80;;;;;;5112248;28;20521;-64
2021/08/13 01:29:21;;;;;;;7.20;6.70;;;21.60;97.80;;;;;;5100557;28;20465;-64
2021/08/13 01:31:57;;;;;;;8.10;7.47;;;21.60;97.90;;;;;;5109659;27;20472;-64
2021/08/13 01:34:25;;;;;;;7.80;7.20;;;21.60;97.90;;;;;;5101309;27;21237;-64
2021/08/13 01:36:55;;;;;;;6.90;6.40;;;21.60;98.00;;;;;;5095665;27;20506;-63
2021/08/13 01:39:22;;;;;;;8.40;7.70;;;21.60;98.10;;;;;;5103647;28;20461;-64
2021/08/13 01:41:50;;;;;;;7.50;6.90;;;21.60;98.20;;;;;;5105886;28;20468;-64
2021/08/13 01:44:17;;;;;;;10.80;9.90;;;21.60;98.20;;;;;;5102437;28;20466;-64
2021/08/13 01:46:45;;;;;;;10.33;9.40;;;21.60;98.10;;;;;;5106990;28;20518;-64
2021/08/13 01:49:14;;;;;;;9.17;8.47;;;21.60;98.10;;;;;;5109729;28;20473;-64
2021/08/13 01:51:44;;;;;;;8.63;8.03;;;21.60;98.10;;;;;;5099938;28;20529;-64
2021/08/13 01:54:11;;;;;;;8.57;7.93;;;21.60;98.10;;;;;;5105136;28;20469;-64
2021/08/13 01:56:38;;;;;;;7.67;7.07;;;21.60;98.10;;;;;;5107946;28;20523;-64
2021/08/13 01:59:05;;;;;;;8.60;7.90;;;21.60;98.20;;;;;;5095621;28;20866;-64
2021/08/13 02:01:32;;;;;;;8.27;7.67;;;21.60;98.20;;;;;;5104036;28;20460;-63
2021/08/13 02:04:00;;;;;;;8.20;7.60;;;21.60;98.20;;;;;;5113324;27;20464;-63
2021/08/13 02:06:30;;;;;;;8.20;7.50;;;21.60;98.30;;;;;;5102452;28;20461;-64
2021/08/13 02:08:59;;;;;;;7.70;7.20;;;21.60;98.30;;;;;;5111396;28;20985;-64
2021/08/13 02:11:26;;;;;;;9.13;8.33;;;21.60;98.30;;;;;;5100042;28;20468;-64
2021/08/13 02:13:53;;;;;;;8.37;7.77;;;21.60;98.20;;;;;;5104712;27;20461;-64
2021/08/13 02:16:25;;;;;;;8.03;7.47;;;21.60;98.10;;;;;;5105266;28;20469;-64
2021/08/13 02:19:00;;;;;;;7.73;7.20;;;21.60;98.10;;;;;;5103541;27;20477;-64
2021/08/13 02:21:29;;;;;;;8.17;7.57;;;21.60;98.20;;;;;;5105873;28;20856;-64
2021/08/13 02:23:57;;;;;;;8.53;7.83;;;21.60;98.40;;;;;;5105662;28;20461;-64
2021/08/13 02:26:24;;;;;;;8.03;7.43;;;21.60;98.50;;;;;;5104043;28;20525;-64
2021/08/13 02:28:50;;;;;;;9.40;8.70;;;21.60;98.60;;;;;;5108722;27;20529;-64
2021/08/13 02:31:17;;;;;;;56.27;49.93;;;21.60;98.30;;;;;;5111010;27;20513;-64
2021/08/13 02:33:43;;;;;;;24.23;21.83;;;21.60;98.20;;;;;;5110980;27;20529;-64
2021/08/13 02:36:15;;;;;;;16.33;14.87;;;21.60;98.30;;;;;;5112379;27;20461;-64
2021/08/13 02:38:51;;;;;;;14.00;12.77;;;21.60;98.20;;;;;;5113148;27;20460;-64
2021/08/13 02:41:19;;;;;;;26.67;23.97;;;21.60;98.20;;;;;;5112439;27;21004;-64
2021/08/13 02:43:51;;;;;;;21.17;19.13;;;21.60;97.80;;;;;;5111275;27;20464;-64
2021/08/13 02:46:20;;;;;;;13.67;12.37;;;21.60;97.70;;;;;;5111022;27;20525;-63
2021/08/13 02:48:49;;;;;;;11.00;9.97;;;21.60;97.70;;;;;;5111285;27;20861;-64
2021/08/13 02:51:17;;;;;;;9.93;9.13;;;21.60;97.80;;;;;;5110917;27;20518;-64
2021/08/13 02:53:49;;;;;;;10.27;9.37;;;21.60;97.90;;;;;;5111179;27;21154;-64
2021/08/13 02:56:18;;;;;;;9.13;8.40;;;21.60;98.00;;;;;;5116416;27;20459;-64
2021/08/13 02:58:49;;;;;;;9.03;8.17;;;21.60;98.10;;;;;;5133316;27;20836;-64
2021/08/13 03:01:18;;;;;;;9.50;8.70;;;21.60;98.10;;;;;;5133141;27;20527;-64
2021/08/13 03:03:47;;;;;;;8.90;8.10;;;21.60;98.20;;;;;;5133615;27;20523;-64
2021/08/13 03:06:16;;;;;;;9.50;8.60;;;21.60;98.20;;;;;;5132882;27;20497;-64
2021/08/13 03:08:44;;;;;;;7.83;7.13;;;21.60;98.30;;;;;;5133259;27;20526;-64
2021/08/13 03:11:12;;;;;;;8.13;7.53;;;21.60;98.30;;;;;;5133011;27;20463;-64
2021/08/13 03:13:38;;;;;;;8.10;7.50;;;21.60;98.40;;;;;;5133361;27;20463;-63
2021/08/13 03:16:08;;;;;;;8.00;7.40;;;21.60;98.40;;;;;;5133448;27;20529;-64
2021/08/13 03:18:35;;;;;;;8.70;8.03;;;21.60;98.20;;;;;;5133016;27;20504;-63
2021/08/13 03:21:03;;;;;;;9.77;8.90;;;21.60;98.00;;;;;;5133332;27;20522;-64
2021/08/13 03:23:29;;;;;;;12.43;11.33;;;21.60;97.80;;;;;;5132849;27;20463;-64
2021/08/13 03:25:57;;;;;;;14.03;12.73;;;21.60;97.60;;;;;;5133507;27;20516;-64
2021/08/13 03:28:23;;;;;;;13.10;11.90;;;21.60;97.30;;;;;;5132822;27;20459;-64
2021/08/13 03:30:50;;;;;;;11.07;10.03;;;21.60;97.10;;;;;;5114470;27;20529;-64
2021/08/13 03:33:18;;;;;;;21.10;18.87;;;21.60;97.00;;;;;;5112187;27;20533;-64
2021/08/13 03:35:45;;;;;;;18.80;17.17;;;21.60;96.90;;;;;;5112858;27;21022;-64
2021/08/13 03:38:13;;;;;;;13.70;12.43;;;21.60;96.90;;;;;;5112170;27;20911;-64
2021/08/13 03:40:40;;;;;;;13.50;12.40;;;21.60;96.80;;;;;;5112673;27;20472;-62
2021/08/13 03:43:06;;;;;;;16.97;15.27;;;21.70;96.80;;;;;;5113220;27;20471;-62
2021/08/13 03:45:33;;;;;;;15.33;13.83;;;21.70;96.70;;;;;;5116111;27;20468;-64
2021/08/13 03:47:59;;;;;;;12.77;11.60;;;21.70;96.70;;;;;;5116010;27;20537;-64
2021/08/13 03:50:27;;;;;;;9.50;8.73;;;21.70;96.60;;;;;;5115821;27;20541;-64
2021/08/13 03:52:54;;;;;;;9.50;8.70;;;21.70;96.60;;;;;;5116232;27;20460;-64
2021/08/13 03:55:20;;;;;;;9.40;8.43;;;21.70;96.60;;;;;;5115559;27;20460;-64
2021/08/13 03:57:47;;;;;;;8.67;7.97;;;21.70;96.50;;;;;;5133851;27;20463;-64
2021/08/13 04:00:14;;;;;;;13.50;12.20;;;21.70;96.50;;;;;;5136118;27;20464;-64
2021/08/13 04:02:41;;;;;;;13.23;12.10;;;21.70;96.50;;;;;;5136551;27;20523;-64
2021/08/13 04:05:09;;;;;;;18.90;17.03;;;21.70;96.50;;;;;;5136581;27;20459;-63
2021/08/13 04:07:36;;;;;;;13.90;12.70;;;21.70;96.50;;;;;;5136334;27;20917;-63
2021/08/13 04:10:04;;;;;;;11.60;10.60;;;21.70;96.50;;;;;;5136432;27;20467;-64
2021/08/13 04:12:31;;;;;;;12.63;11.53;;;21.70;96.50;;;;;;5135989;27;20472;-64
2021/08/13 04:14:57;;;;;;;14.80;13.60;;;21.70;96.50;;;;;;5136238;27;20464;-64
2021/08/13 04:17:24;;;;;;;15.30;13.90;;;21.70;96.50;;;;;;5135854;27;21014;-64
2021/08/13 04:19:50;;;;;;;13.90;12.80;;;21.70;96.50;;;;;;5136399;27;20843;-64
2021/08/13 04:22:18;;;;;;;11.03;10.13;;;21.70;96.50;;;;;;5135832;27;20558;-64
2021/08/13 04:24:46;;;;;;;12.17;11.07;;;21.80;96.60;;;;;;5136222;27;20451;-64
2021/08/13 04:27:12;;;;;;;10.57;9.67;;;21.80;96.60;;;;;;5136095;27;20456;-64
2021/08/13 04:29:39;;;;;;;10.50;9.50;;;21.80;96.90;;;;;;5126891;27;20468;-64
2021/08/13 04:32:06;;;;;;;12.83;11.67;;;21.80;96.90;;;;;;5115370;27;20771;-64
2021/08/13 04:34:33;;;;;;;14.00;12.30;;;21.80;96.80;;;;;;5114963;27;20473;-64
2021/08/13 04:37:01;;;;;;;14.80;13.40;;;21.80;96.80;;;;;;5115434;27;20461;-64
2021/08/13 04:39:27;;;;;;;19.70;18.00;;;21.80;96.80;;;;;;5114708;27;20500;-63
2021/08/13 04:41:55;;;;;;;13.07;11.93;;;21.90;96.70;;;;;;5115383;27;20464;-64
2021/08/13 04:44:22;;;;;;;11.77;10.87;;;21.80;96.70;;;;;;5114622;27;20982;-64
2021/08/13 04:46:48;;;;;;;13.30;12.10;;;21.80;96.70;;;;;;5115155;27;20448;-64
2021/08/13 04:49:15;;;;;;;11.40;10.50;;;21.90;96.70;;;;;;5115122;27;20468;-64
2021/08/13 04:51:42;;;;;;;9.93;9.03;;;21.90;96.80;;;;;;5114706;27;20449;-64
2021/08/13 04:54:10;;;;;;;8.20;7.60;;;21.90;97.00;;;;;;5114266;27;20468;-64
2021/08/13 04:56:37;;;;;;;9.10;8.30;;;21.90;97.20;;;;;;5121768;27;20464;-64
2021/08/13 04:59:05;;;;;;;8.50;7.87;;;21.90;97.30;;;;;;5135282;27;20520;-64
2021/08/13 05:01:32;;;;;;;8.83;8.23;;;21.90;97.30;;;;;;5134912;27;20965;-64
2021/08/13 05:03:58;;;;;;;8.03;7.33;;;21.90;97.40;;;;;;5135341;27;21061;-63
2021/08/13 05:06:25;;;;;;;8.83;8.03;;;21.90;97.50;;;;;;5134952;27;20845;-63
2021/08/13 05:08:52;;;;;;;10.50;9.60;;;21.90;97.60;;;;;;5135184;27;20516;-63
2021/08/13 05:11:18;;;;;;;9.03;8.33;;;21.90;97.50;;;;;;5134760;27;20468;-63
2021/08/13 05:13:45;;;;;;;9.10;8.40;;;21.90;97.50;;;;;;5134996;27;20524;-64
2021/08/13 05:16:13;;;;;;;8.90;8.07;;;21.90;97.50;;;;;;5135251;27;20463;-63
2021/08/13 05:18:39;;;;;;;8.87;8.27;;;21.90;97.50;;;;;;5134417;27;20464;-62
2021/08/13 05:21:06;;;;;;;8.20;7.40;;;22.00;97.80;;;;;;5135042;27;20463;-63
2021/08/13 05:23:33;;;;;;;10.00;9.20;;;22.00;97.70;;;;;;5121190;27;20535;-63
2021/08/13 05:26:00;;;;;;;10.00;9.20;;;22.00;97.50;;;;;;5114190;27;20490;-63
2021/08/13 05:28:27;;;;;;;11.27;10.17;;;22.00;97.40;;;;;;5113719;27;20533;-63
2021/08/13 05:30:54;;;;;;;9.17;8.37;;;22.00;97.50;;;;;;5114109;27;20469;-63
2021/08/13 05:33:22;;;;;;;9.70;8.80;;;22.00;97.40;;;;;;5113621;27;20961;-62
2021/08/13 05:35:48;;;;;;;9.60;8.80;;;22.00;97.40;;;;;;5114039;27;20457;-64
2021/08/13 05:38:15;;;;;;;10.20;9.40;;;22.10;97.50;;;;;;5114106;27;20476;-64
2021/08/13 05:40:42;;;;;;;11.13;10.30;;;22.10;97.60;;;;;;5113582;27;20460;-63
2021/08/13 05:43:08;;;;;;;9.57;8.87;;;22.10;97.80;;;;;;5113974;27;20985;-63
2021/08/13 05:45:35;;;;;;;9.43;8.63;;;22.10;98.00;;;;;;5113516;27;20473;-64
2021/08/13 05:48:02;;;;;;;10.80;10.00;;;22.10;98.30;;;;;;5113590;27;20553;-64
2021/08/13 05:50:30;;;;;;;11.13;10.10;;;22.10;98.40;;;;;;5113599;27;20529;-63
2021/08/13 05:52:56;;;;;;;12.10;11.17;;;22.10;98.50;;;;;;5113798;27;20461;-64
2021/08/13 05:55:23;;;;;;;11.57;10.67;;;22.10;98.60;;;;;;5113290;27;20526;-65
2021/08/13 05:57:50;;;;;;;15.17;13.83;;;22.10;98.30;;;;;;5131833;27;20467;-64
2021/08/13 06:00:17;;;;;;;12.90;11.70;;;22.10;98.50;;;;;;5134201;27;20843;-64
2021/08/13 06:02:54;;;;;;;12.67;11.47;;;22.10;98.50;;;;;;5133735;27;20463;-64
2021/08/13 06:05:20;;;;;;;13.50;12.30;;;22.10;98.60;;;;;;5133997;27;20546;-64
2021/08/13 06:07:50;;;;;;;12.33;11.27;;;22.10;98.70;;;;;;5133711;27;20448;-64
2021/08/13 06:10:16;;;;;;;11.70;10.77;;;22.10;98.90;;;;;;5134003;27;20478;-64
2021/08/13 06:12:43;;;;;;;12.13;11.03;;;22.10;99.00;;;;;;5133688;27;20456;-64
2021/08/13 06:15:11;;;;;;;12.03;10.93;;;22.10;99.10;;;;;;5133764;27;20460;-63
2021/08/13 06:17:38;;;;;;;12.00;11.07;;;22.20;99.30;;;;;;5133300;27;20472;-64
2021/08/13 06:20:05;;;;;;;11.97;10.97;;;22.20;99.30;;;;;;5133938;27;20524;-64
2021/08/13 06:22:32;;;;;;;13.93;12.43;;;22.20;99.40;;;;;;5128570;27;20469;-64
2021/08/13 06:25:00;;;;;;;15.70;14.40;;;22.30;99.60;;;;;;5113412;27;20524;-64
2021/08/13 06:27:26;;;;;;;15.07;13.77;;;22.30;99.60;;;;;;5112686;27;20469;-64
2021/08/13 06:29:53;;;;;;;14.53;13.13;;;22.40;99.70;;;;;;5112955;27;20550;-64
2021/08/13 06:32:20;;;;;;;14.03;12.77;;;22.40;99.60;;;;;;5113084;27;20464;-64
2021/08/13 06:34:46;;;;;;;18.30;16.80;;;22.50;99.40;;;;;;5112636;27;20463;-64
2021/08/13 06:37:13;;;;;;;17.73;16.30;;;22.60;99.40;;;;;;5113302;27;20977;-64
2021/08/13 06:39:40;;;;;;;16.03;14.63;;;22.60;99.30;;;;;;5112613;27;20469;-64
2021/08/13 06:42:08;;;;;;;14.60;13.10;;;22.70;99.20;;;;;;5113188;27;20460;-64
2021/08/13 06:44:34;;;;;;;14.77;13.57;;;22.80;99.40;;;;;;5112584;27;20456;-64
2021/08/13 06:47:01;;;;;;;13.27;12.07;;;22.80;99.40;;;;;;5113224;27;20461;-64
2021/08/13 06:49:28;;;;;;;12.83;11.83;;;22.90;99.30;;;;;;5112481;27;20461;-64
2021/08/13 06:51:54;;;;;;;13.87;12.77;;;23.00;99.20;;;;;;5113137;27;20461;-63
2021/08/13 06:54:21;;;;;;;11.00;10.00;;;23.10;99.00;;;;;;5112850;27;20513;-63
2021/08/13 06:56:47;;;;;;;15.03;13.67;;;23.10;98.70;;;;;;5121782;27;20959;-64
2021/08/13 06:59:15;;;;;;;16.30;14.90;;;23.30;98.50;;;;;;5131580;27;20467;-63
2021/08/13 07:01:42;;;;;;;20.07;18.17;;;23.40;98.50;;;;;;5112564;27;20970;-64
2021/08/13 07:04:08;;;;;;;19.33;17.63;;;23.40;98.70;;;;;;5112527;27;20856;-64
2021/08/13 07:06:35;;;;;;;18.03;16.30;;;23.50;98.70;;;;;;5112189;27;20513;-64
2021/08/13 07:09:02;;;;;;;16.83;15.33;;;23.50;98.50;;;;;;5112192;27;20464;-64
2021/08/13 07:11:28;;;;;;;15.33;14.10;;;23.60;98.70;;;;;;5112508;27;20537;-64
2021/08/13 07:13:55;;;;;;;13.83;12.73;;;23.70;98.70;;;;;;5112818;27;20519;-63
2021/08/13 07:16:23;;;;;;;12.97;11.93;;;23.80;98.60;;;;;;5112851;27;20468;-64
2021/08/13 07:18:49;;;;;;;13.33;12.20;;;23.90;98.80;;;;;;5114464;27;20490;-64
2021/08/13 07:21:16;;;;;;;13.50;12.20;;;24.00;98.90;;;;;;5116849;27;20573;-64
2021/08/13 07:23:42;;;;;;;12.57;11.47;;;24.10;99.00;;;;;;5116018;27;20837;-64
2021/08/13 07:26:09;;;;;;;10.63;9.77;;;24.10;98.70;;;;;;5116582;27;20472;-64
2021/08/13 07:28:35;;;;;;;12.23;11.10;;;24.20;98.50;;;;;;5116104;27;20525;-64
2021/08/13 07:31:02;;;;;;;14.13;11.17;;;24.30;98.60;;;;;;5116527;27;20472;-64
2021/08/13 07:33:30;;;;;;;13.60;12.27;;;24.40;98.60;;;;;;5116274;27;20840;-64
2021/08/13 07:35:57;;;;;;;16.80;15.40;;;24.50;98.50;;;;;;5116540;27;20460;-64
2021/08/13 07:38:23;;;;;;;15.37;14.00;;;24.50;98.20;;;;;;5116449;27;20473;-64
2021/08/13 07:40:50;;;;;;;18.27;16.80;;;24.60;98.30;;;;;;5115794;27;20529;-63
2021/08/13 07:43:16;;;;;;;16.73;15.23;;;24.70;98.50;;;;;;5116488;27;20465;-63
2021/08/13 07:45:43;;;;;;;18.00;16.40;;;24.70;98.00;;;;;;5115744;27;20489;-63
2021/08/13 07:48:09;;;;;;;16.43;15.10;;;24.80;97.90;;;;;;5116201;27;20468;-63
2021/08/13 07:50:37;;;;;;;16.07;14.47;;;24.80;97.80;;;;;;5115796;27;20468;-64
2021/08/13 07:53:04;;;;;;;14.43;13.23;;;24.90;97.80;;;;;;5116067;27;20464;-63
2021/08/13 07:55:31;;;;;;;13.50;12.43;;;25.00;97.80;;;;;;5115511;27;20483;-63
2021/08/13 07:57:57;;;;;;;13.20;12.00;;;25.00;97.70;;;;;;5135132;27;20717;-63
2021/08/13 08:00:24;;;;;;;12.40;11.30;;;25.10;97.60;;;;;;5124765;27;20475;-63
2021/08/13 08:02:51;;;;;;;12.47;11.40;;;25.10;97.90;;;;;;5115338;27;20533;-64
2021/08/13 08:05:17;;;;;;;10.83;9.93;;;25.10;97.50;;;;;;5115917;27;20460;-64
2021/08/13 08:07:46;;;;;;;10.30;9.50;;;25.20;97.40;;;;;;5115240;27;21019;-63
2021/08/13 08:10:12;;;;;;;10.13;9.33;;;25.20;97.40;;;;;;5115882;27;20461;-64
2021/08/13 08:12:39;;;;;;;11.00;10.00;;;25.30;97.00;;;;;;5115094;27;20977;-63
2021/08/13 08:15:07;;;;;;;10.17;9.33;;;25.40;96.70;;;;;;5115507;27;20518;-63
2021/08/13 08:17:33;;;;;;;12.17;11.17;;;25.40;96.60;;;;;;5115340;27;20521;-63
2021/08/13 08:20:00;;;;;;;9.87;9.10;;;25.50;96.60;;;;;;5115591;27;20472;-64
2021/08/13 08:22:27;;;;;;;10.53;9.37;;;25.60;96.50;;;;;;5115590;27;20526;-63
2021/08/13 08:24:54;;;;;;;10.27;9.47;;;25.60;96.70;;;;;;5115226;27;20468;-63
2021/08/13 08:27:21;;;;;;;9.57;8.67;;;25.70;96.10;;;;;;5115450;27;20966;-63
2021/08/13 08:29:48;;;;;;;9.70;8.80;;;25.70;96.00;;;;;;5114640;27;20490;-63
2021/08/13 08:32:14;;;;;;;10.00;9.03;;;25.70;95.80;;;;;;5115638;27;20811;-64
2021/08/13 08:34:41;;;;;;;10.60;9.73;;;25.80;95.50;;;;;;5114753;27;20853;-63
2021/08/13 08:37:11;;;;;;;12.13;11.10;;;25.80;95.20;;;;;;5115320;27;20476;-64
2021/08/13 08:39:39;;;;;;;14.70;13.40;;;25.80;94.90;;;;;;5114797;27;20974;-64
2021/08/13 08:42:12;;;;;;;14.00;12.90;;;25.90;94.60;;;;;;5115337;27;20468;-63
2021/08/13 08:44:38;;;;;;;19.60;18.00;;;25.90;94.50;;;;;;5114535;27;21000;-64
2021/08/13 08:47:05;;;;;;;21.37;19.53;;;26.00;94.00;;;;;;5115318;27;20468;-63
2021/08/13 08:49:33;;;;;;;28.40;25.90;;;26.00;93.90;;;;;;5114902;27;20469;-63
2021/08/13 08:52:01;;;;;;;23.60;21.60;;;26.00;93.60;;;;;;5114712;27;21201;-63
2021/08/13 08:54:28;;;;;;;23.87;21.70;;;26.10;93.80;;;;;;5115115;27;20460;-62
2021/08/13 08:56:56;;;;;;;25.07;23.00;;;26.10;93.50;;;;;;5124487;27;20471;-64
2021/08/13 08:59:23;;;;;;;26.40;24.20;;;26.10;93.20;;;;;;5135410;27;20500;-63
2021/08/13 09:01:50;;;;;;;24.07;21.90;;;26.20;93.30;;;;;;5135003;27;20460;-64
2021/08/13 09:04:17;;;;;;;19.73;17.93;;;26.20;93.20;;;;;;5135360;27;20536;-63
2021/08/13 09:06:44;;;;;;;16.60;15.13;;;26.30;93.10;;;;;;5134957;27;20472;-63
2021/08/13 09:09:11;;;;;;;14.50;13.30;;;26.30;92.90;;;;;;5135188;27;20821;-64
2021/08/13 09:11:39;;;;;;;15.83;14.20;;;26.30;93.20;;;;;;5134785;27;20476;-64
2021/08/13 09:14:08;;;;;;;20.07;18.37;;;26.40;92.90;;;;;;5135309;27;20460;-63
2021/08/13 09:16:36;;;;;;;22.37;20.40;;;26.40;92.50;;;;;;5134858;27;20505;-64
2021/08/13 09:19:04;;;;;;;26.27;23.97;;;26.40;92.30;;;;;;5134928;27;20490;-63
2021/08/13 09:21:32;;;;;;;26.77;24.27;;;26.50;92.20;;;;;;5135160;27;20471;-64
2021/08/13 09:24:00;;;;;;;20.07;18.37;;;26.50;92.20;;;;;;5134555;27;20470;-63
2021/08/13 09:26:28;;;;;;;16.03;14.73;;;26.50;92.40;;;;;;5134765;27;20460;-64
2021/08/13 09:28:56;;;;;;;17.63;15.93;;;26.50;92.30;;;;;;5132000;27;20782;-64
2021/08/13 09:31:25;;;;;;;17.63;16.03;;;26.60;91.90;;;;;;5114274;27;20969;-64
2021/08/13 09:33:54;;;;;;;15.57;14.23;;;26.60;92.10;;;;;;5113778;27;20473;-63
2021/08/13 09:36:23;;;;;;;13.93;12.60;;;26.60;92.10;;;;;;5114215;27;20472;-64
2021/08/13 09:38:51;;;;;;;12.80;11.70;;;26.60;92.00;;;;;;5113429;27;20469;-63
2021/08/13 09:41:20;;;;;;;16.67;15.17;;;26.70;92.00;;;;;;5113299;27;20517;-62
2021/08/13 09:43:59;;;;;;;11.90;10.90;;;26.70;91.70;;;;;;5113558;27;20456;-62
2021/08/13 09:46:26;;;;;;;12.00;10.80;;;26.80;91.90;;;;;;5113949;27;20457;-62
2021/08/13 09:49:11;;;;;;;10.73;9.83;;;26.90;91.20;;;;;;5112926;27;20971;-62
2021/08/13 09:51:38;;;;;;;12.40;11.30;;;26.90;91.50;;;;;;5112744;27;20494;-63
2021/08/13 09:54:06;;;;;;;16.53;14.93;;;26.90;91.80;;;;;;5111943;27;20525;-63
2021/08/13 09:56:34;;;;;;;12.33;11.27;;;27.00;91.60;;;;;;5119418;27;20957;-63
2021/08/13 09:59:14;;;;;;;12.80;11.83;;;27.00;91.50;;;;;;5132411;27;20462;-64
2021/08/13 10:01:42;;;;;;;13.80;12.63;;;27.00;91.20;;;;;;5132864;27;20876;-63
2021/08/13 10:04:10;;;;;;;16.40;15.03;;;27.10;91.50;;;;;;5133221;27;20460;-63
2021/08/13 10:06:38;;;;;;;14.37;13.27;;;27.10;91.10;;;;;;5133954;27;20455;-63
2021/08/13 10:09:06;;;;;;;16.00;14.50;;;27.10;91.10;;;;;;5133571;27;20523;-63
2021/08/13 10:11:36;;;;;;;17.73;16.10;;;27.10;91.00;;;;;;5134156;27;20477;-63
2021/08/13 10:14:04;;;;;;;13.83;12.57;;;27.10;90.70;;;;;;5133530;27;20459;-64
2021/08/13 10:16:31;;;;;;;13.87;12.67;;;27.10;90.70;;;;;;5118443;27;20464;-64
2021/08/13 10:18:58;;;;;;;13.87;12.70;;;27.10;90.40;;;;;;5112267;27;20465;-62
2021/08/13 10:21:28;;;;;;;13.90;12.80;;;27.10;90.40;;;;;;5111766;27;20463;-63
2021/08/13 10:23:56;;;;;;;12.57;11.57;;;27.10;90.40;;;;;;5111948;27;20468;-62
2021/08/13 10:26:23;;;;;;;10.63;9.77;;;27.10;90.20;;;;;;5112734;27;20468;-63
2021/08/13 10:28:51;;;;;;;13.40;12.10;;;27.10;90.40;;;;;;5111811;27;20468;-63
2021/08/13 10:31:19;;;;;;;11.73;10.73;;;27.10;90.30;;;;;;5112290;27;20510;-63
2021/08/13 10:33:46;;;;;;;11.37;10.47;;;27.20;90.10;;;;;;5112993;27;20568;-64
2021/08/13 10:36:16;;;;;;;14.50;13.23;;;27.20;90.00;;;;;;5113173;27;20470;-64
2021/08/13 10:38:48;;;;;;;11.70;10.70;;;27.30;89.80;;;;;;5112498;27;20817;-63
2021/08/13 10:41:17;;;;;;;11.60;10.60;;;27.30;89.60;;;;;;5113114;27;20844;-63
2021/08/13 10:43:45;;;;;;;12.70;11.60;;;27.30;90.00;;;;;;5113137;27;20472;-64
2021/08/13 10:46:14;;;;;;;11.67;10.47;;;27.30;89.60;;;;;;5112899;27;21241;-64
2021/08/13 10:48:43;;;;;;;8.67;7.97;;;27.30;89.60;;;;;;5112841;27;20840;-64
2021/08/13 10:51:10;;;;;;;12.40;8.27;;;27.30;90.00;;;;;;5112570;27;20828;-65
2021/08/13 10:53:38;;;;;;;15.23;13.93;;;27.40;90.00;;;;;;5115101;27;20456;-64
2021/08/13 10:56:07;;;;;;;14.63;13.17;;;27.30;89.40;;;;;;5119861;27;20951;-65
2021/08/13 10:58:48;;;;;;;16.47;14.97;;;27.30;89.50;;;;;;5137838;27;20545;-65
2021/08/13 11:01:16;;;;;;;16.70;15.20;;;27.30;89.40;;;;;;5137581;27;20459;-65
2021/08/13 11:03:43;;;;;;;16.00;14.63;;;27.20;89.30;;;;;;5137650;27;20459;-65
2021/08/13 11:06:11;;;;;;;12.53;11.43;;;27.20;89.50;;;;;;5137290;27;20455;-64
2021/08/13 11:09:01;;;;;;;15.60;14.10;;;27.10;89.40;;;;;;5137539;27;20876;-64
2021/08/13 11:12:03;;;;;;;9.80;8.90;;;27.00;89.70;;;;;;5137760;27;20521;-65
2021/08/13 11:14:31;;;;;;;11.00;10.20;;;27.10;89.80;;;;;;5137409;27;20451;-63
2021/08/13 11:16:58;;;;;;;13.23;12.10;;;27.10;89.70;;;;;;5118393;27;20461;-64
2021/08/13 11:19:25;;;;;;;10.93;9.93;;;27.00;89.40;;;;;;5116204;27;20472;-64
2021/08/13 11:21:54;;;;;;;9.77;9.03;;;27.00;90.00;;;;;;5116944;27;20468;-64
2021/08/13 11:24:22;;;;;;;11.97;10.23;;;27.00;89.80;;;;;;5116160;27;21045;-65
2021/08/13 11:27:09;;;;;;;11.27;10.30;;;27.00;89.80;;;;;;5116518;27;20525;-64
2021/08/13 11:29:39;;;;;;;12.27;11.27;;;27.00;89.50;;;;;;5115953;27;20459;-64
2021/08/13 11:32:21;;;;;;;11.73;10.73;;;26.90;89.40;;;;;;5116671;27;20464;-64
2021/08/13 11:34:49;;;;;;;9.77;8.77;;;26.90;90.20;;;;;;5116903;27;20464;-64
2021/08/13 11:37:50;;;;;;;11.40;10.40;;;26.90;89.90;;;;;;5116086;27;20919;-64
2021/08/13 11:40:50;;;;;;;10.67;9.67;;;26.90;89.90;;;;;;5116022;27;20468;-64
2021/08/13 11:43:19;;;;;;;11.37;10.47;;;27.00;89.90;;;;;;5115902;27;20448;-64
2021/08/13 11:45:48;;;;;;;9.33;8.63;;;26.90;89.50;;;;;;5116468;27;20460;-64
2021/08/13 11:48:15;;;;;;;11.13;10.13;;;26.90;89.70;;;;;;5115432;27;20460;-64
2021/08/13 11:50:42;;;;;;;9.63;8.83;;;26.90;89.60;;;;;;5116233;27;20474;-64
2021/08/13 11:53:09;;;;;;;9.23;8.53;;;26.90;89.60;;;;;;5115547;27;20461;-64
2021/08/13 11:55:37;;;;;;;8.17;7.47;;;27.00;89.80;;;;;;5116177;27;20529;-64
2021/08/13 11:58:06;;;;;;;10.33;9.43;;;27.10;89.50;;;;;;5135539;27;20459;-65
2021/08/13 12:00:36;;;;;;;11.13;10.07;;;27.00;89.20;;;;;;5136322;27;20455;-65
2021/08/13 12:03:05;;;;;;;10.07;9.10;;;27.00;89.40;;;;;;5136079;27;20463;-64
2021/08/13 12:05:32;;;;;;;9.10;8.30;;;27.10;89.70;;;;;;5135906;27;21012;-64
2021/08/13 12:08:01;;;;;;;9.70;8.80;;;27.10;89.70;;;;;;5136021;27;20467;-64
2021/08/13 12:10:28;;;;;;;28.17;25.77;;;27.10;89.60;;;;;;5136508;27;20451;-65
2021/08/13 12:12:55;;;;;;;31.73;29.13;;;27.10;89.20;;;;;;5136298;27;20523;-65
2021/08/13 12:15:30;;;;;;;17.53;16.03;;;27.00;90.00;;;;;;5135751;27;20456;-65
2021/08/13 12:17:59;;;;;;;22.33;20.33;;;27.00;89.70;;;;;;5136160;27;20470;-64
2021/08/13 12:20:26;;;;;;;23.87;21.57;;;26.90;89.50;;;;;;5135876;27;20847;-65
2021/08/13 12:23:01;;;;;;;19.17;17.57;;;27.00;89.50;;;;;;5136322;27;20520;-64
2021/08/13 12:25:34;;;;;;;19.70;17.93;;;27.00;89.20;;;;;;5135744;27;20467;-64
2021/08/13 12:28:01;;;;;;;18.53;17.00;;;27.00;89.20;;;;;;5136024;27;20492;-65
2021/08/13 12:30:27;;;;;;;19.03;17.23;;;27.00;89.30;;;;;;5120185;27;20460;-65
2021/08/13 12:32:56;;;;;;;15.33;14.10;;;27.10;89.50;;;;;;5115275;27;20465;-65
2021/08/13 12:35:25;;;;;;;17.37;15.97;;;27.10;89.70;;;;;;5114816;27;20473;-65
2021/08/13 12:37:54;;;;;;;18.03;16.40;;;27.20;89.70;;;;;;5115261;27;20464;-64
2021/08/13 12:40:21;;;;;;;13.87;12.73;;;27.20;89.50;;;;;;5114711;27;20476;-65
2021/08/13 12:42:51;;;;;;;14.37;13.27;;;27.30;89.80;;;;;;5115107;27;20472;-65